sensor_id;sensor_type;location;lat;lon;timestamp;temperature;humidity
23813;DHT22;12087;45.190;5.688;2023-06-24T00:01:04;21.30;99.90
23813;DHT22;12087;45.190;5.688;2023-06-24T00:06:26;21.20;99.90
23813;DHT22;12087;45.190;5.688;2023-06-24T00:11:50;21.20;99.90
23813;DHT22;12087;45.190;5.688;2023-06-24T00:17:12;21.10;99.90
23813;DHT22;12087;45.190;5.688;2023-06-24T00:22:34;21.00;99.90
23813;DHT22;12087;45.190;5.688;2023-06-24T00:27:58;20.90;99.90
23813;DHT22;12087;45.190;5.688;2023-06-24T00:33:20;20.90;99.90
23813;DHT22;12087;45.190;5.688;2023-06-24T00:38:42;20.80;99.90
23813;DHT22;12087;45.190;5.688;2023-06-24T00:44:06;20.70;99.90
23813;DHT22;12087;45.190;5.688;2023-06-24T00:49:29;20.60;99.90
23813;DHT22;12087;45.190;5.688;2023-06-24T00:54:51;20.50;99.90
23813;DHT22;12087;45.190;5.688;2023-06-24T01:00:17;20.40;99.90
23813;DHT22;12087;45.190;5.688;2023-06-24T01:05:40;20.40;99.90
23813;DHT22;12087;45.190;5.688;2023-06-24T01:11:03;20.30;99.90
23813;DHT22;12087;45.190;5.688;2023-06-24T01:16:34;20.20;99.90
23813;DHT22;12087;45.190;5.688;2023-06-24T01:22:06;20.10;99.90
23813;DHT22;12087;45.190;5.688;2023-06-24T01:27:52;20.00;99.90
23813;DHT22;12087;45.190;5.688;2023-06-24T01:33:22;19.90;99.90
23813;DHT22;12087;45.190;5.688;2023-06-24T01:38:48;19.90;99.90
23813;DHT22;12087;45.190;5.688;2023-06-24T01:44:14;19.80;99.90
23813;DHT22;12087;45.190;5.688;2023-06-24T01:49:41;19.80;99.90
23813;DHT22;12087;45.190;5.688;2023-06-24T01:55:06;19.70;99.90
23813;DHT22;12087;45.190;5.688;2023-06-24T02:00:29;19.70;99.90
23813;DHT22;12087;45.190;5.688;2023-06-24T02:05:53;19.60;99.90
23813;DHT22;12087;45.190;5.688;2023-06-24T02:11:24;19.60;99.90
23813;DHT22;12087;45.190;5.688;2023-06-24T02:16:48;19.60;99.90
23813;DHT22;12087;45.190;5.688;2023-06-24T02:22:18;19.60;99.90
23813;DHT22;12087;45.190;5.688;2023-06-24T02:27:42;19.50;99.90
23813;DHT22;12087;45.190;5.688;2023-06-24T02:33:05;19.40;99.90
23813;DHT22;12087;45.190;5.688;2023-06-24T02:38:29;19.40;99.90
23813;DHT22;12087;45.190;5.688;2023-06-24T02:43:51;19.30;99.90
23813;DHT22;12087;45.190;5.688;2023-06-24T02:49:15;19.20;99.90
23813;DHT22;12087;45.190;5.688;2023-06-24T02:54:40;19.20;99.90
23813;DHT22;12087;45.190;5.688;2023-06-24T03:00:03;19.10;99.90
23813;DHT22;12087;45.190;5.688;2023-06-24T03:05:30;19.00;99.90
23813;DHT22;12087;45.190;5.688;2023-06-24T03:10:56;18.90;99.90
23813;DHT22;12087;45.190;5.688;2023-06-24T03:16:19;18.80;99.90
23813;DHT22;12087;45.190;5.688;2023-06-24T03:21:42;18.80;99.90
23813;DHT22;12087;45.190;5.688;2023-06-24T03:27:06;18.70;99.90
23813;DHT22;12087;45.190;5.688;2023-06-24T03:32:28;18.70;99.90
23813;DHT22;12087;45.190;5.688;2023-06-24T03:37:50;18.60;99.90
23813;DHT22;12087;45.190;5.688;2023-06-24T03:43:14;18.60;99.90
23813;DHT22;12087;45.190;5.688;2023-06-24T03:48:37;18.40;99.90
23813;DHT22;12087;45.190;5.688;2023-06-24T03:54:00;18.30;99.90
23813;DHT22;12087;45.190;5.688;2023-06-24T03:59:23;18.30;99.90
23813;DHT22;12087;45.190;5.688;2023-06-24T04:04:45;18.30;99.90
23813;DHT22;12087;45.190;5.688;2023-06-24T04:10:13;18.30;99.90
23813;DHT22;12087;45.190;5.688;2023-06-24T04:15:36;18.20;99.90
23813;DHT22;12087;45.190;5.688;2023-06-24T04:20:59;18.30;99.90
23813;DHT22;12087;45.190;5.688;2023-06-24T04:26:21;18.20;99.90
23813;DHT22;12087;45.190;5.688;2023-06-24T04:31:45;18.20;99.90
23813;DHT22;12087;45.190;5.688;2023-06-24T04:37:07;18.20;99.90
23813;DHT22;12087;45.190;5.688;2023-06-24T04:42:30;18.20;99.90
23813;DHT22;12087;45.190;5.688;2023-06-24T04:47:54;18.20;99.90
23813;DHT22;12087;45.190;5.688;2023-06-24T04:53:16;18.30;99.90
23813;DHT22;12087;45.190;5.688;2023-06-24T04:58:38;18.40;99.90
23813;DHT22;12087;45.190;5.688;2023-06-24T05:04:02;18.40;99.90
23813;DHT22;12087;45.190;5.688;2023-06-24T05:09:24;18.40;99.90
23813;DHT22;12087;45.190;5.688;2023-06-24T05:14:50;18.40;99.90
23813;DHT22;12087;45.190;5.688;2023-06-24T05:20:15;18.40;99.90
23813;DHT22;12087;45.190;5.688;2023-06-24T05:25:38;18.40;99.90
23813;DHT22;12087;45.190;5.688;2023-06-24T05:31:00;18.50;99.90
23813;DHT22;12087;45.190;5.688;2023-06-24T05:36:24;18.60;99.90
23813;DHT22;12087;45.190;5.688;2023-06-24T05:41:46;18.60;99.90
23813;DHT22;12087;45.190;5.688;2023-06-24T05:47:09;18.70;99.90
23813;DHT22;12087;45.190;5.688;2023-06-24T05:52:33;18.80;99.90
23813;DHT22;12087;45.190;5.688;2023-06-24T05:57:55;18.80;99.90
23813;DHT22;12087;45.190;5.688;2023-06-24T06:03:17;18.90;99.90
23813;DHT22;12087;45.190;5.688;2023-06-24T06:08:41;19.00;99.90
23813;DHT22;12087;45.190;5.688;2023-06-24T06:14:03;19.10;99.90
23813;DHT22;12087;45.190;5.688;2023-06-24T06:19:25;19.20;99.90
23813;DHT22;12087;45.190;5.688;2023-06-24T06:24:49;19.30;99.90
23813;DHT22;12087;45.190;5.688;2023-06-24T06:30:13;19.40;99.90
23813;DHT22;12087;45.190;5.688;2023-06-24T06:35:35;19.50;99.90
23813;DHT22;12087;45.190;5.688;2023-06-24T06:40:59;19.50;99.90
23813;DHT22;12087;45.190;5.688;2023-06-24T06:46:21;19.60;99.90
23813;DHT22;12087;45.190;5.688;2023-06-24T06:51:43;19.70;99.90
23813;DHT22;12087;45.190;5.688;2023-06-24T06:57:07;19.80;99.90
23813;DHT22;12087;45.190;5.688;2023-06-24T07:02:29;19.90;99.90
23813;DHT22;12087;45.190;5.688;2023-06-24T07:07:52;20.10;99.90
23813;DHT22;12087;45.190;5.688;2023-06-24T07:13:16;20.20;99.90
23813;DHT22;12087;45.190;5.688;2023-06-24T07:18:38;20.30;99.90
23813;DHT22;12087;45.190;5.688;2023-06-24T07:24:00;20.40;99.90
23813;DHT22;12087;45.190;5.688;2023-06-24T07:29:24;20.50;99.90
23813;DHT22;12087;45.190;5.688;2023-06-24T07:34:46;20.60;99.90
23813;DHT22;12087;45.190;5.688;2023-06-24T07:40:09;20.70;99.90
23813;DHT22;12087;45.190;5.688;2023-06-24T07:45:32;20.80;99.90
23813;DHT22;12087;45.190;5.688;2023-06-24T07:50:54;20.90;99.90
23813;DHT22;12087;45.190;5.688;2023-06-24T07:56:17;21.00;99.90
23813;DHT22;12087;45.190;5.688;2023-06-24T08:01:45;21.10;99.90
23813;DHT22;12087;45.190;5.688;2023-06-24T08:07:07;21.30;99.90
23813;DHT22;12087;45.190;5.688;2023-06-24T08:12:30;21.40;99.90
23813;DHT22;12087;45.190;5.688;2023-06-24T08:17:55;21.50;99.90
23813;DHT22;12087;45.190;5.688;2023-06-24T08:23:17;21.60;99.90
23813;DHT22;12087;45.190;5.688;2023-06-24T08:28:39;21.60;99.90
23813;DHT22;12087;45.190;5.688;2023-06-24T08:34:03;21.90;99.90
23813;DHT22;12087;45.190;5.688;2023-06-24T08:39:26;22.10;99.90
23813;DHT22;12087;45.190;5.688;2023-06-24T08:44:49;22.40;99.90
23813;DHT22;12087;45.190;5.688;2023-06-24T08:50:13;22.50;99.90
23813;DHT22;12087;45.190;5.688;2023-06-24T08:55:39;22.80;99.90
23813;DHT22;12087;45.190;5.688;2023-06-24T09:01:02;22.90;99.90
23813;DHT22;12087;45.190;5.688;2023-06-24T09:06:26;23.40;99.90
23813;DHT22;12087;45.190;5.688;2023-06-24T09:11:52;23.60;99.90
23813;DHT22;12087;45.190;5.688;2023-06-24T09:17:15;23.70;99.90
23813;DHT22;12087;45.190;5.688;2023-06-24T09:22:44;24.10;99.90
23813;DHT22;12087;45.190;5.688;2023-06-24T09:28:06;24.40;99.90
23813;DHT22;12087;45.190;5.688;2023-06-24T09:33:29;24.80;99.90
23813;DHT22;12087;45.190;5.688;2023-06-24T09:38:52;25.00;99.90
23813;DHT22;12087;45.190;5.688;2023-06-24T09:44:18;25.40;99.90
23813;DHT22;12087;45.190;5.688;2023-06-24T09:49:40;25.60;99.90
23813;DHT22;12087;45.190;5.688;2023-06-24T09:55:05;25.50;99.90
23813;DHT22;12087;45.190;5.688;2023-06-24T10:00:28;25.70;99.90
23813;DHT22;12087;45.190;5.688;2023-06-24T10:05:51;25.60;99.90
23813;DHT22;12087;45.190;5.688;2023-06-24T10:11:14;25.70;99.90
23813;DHT22;12087;45.190;5.688;2023-06-24T10:16:37;25.80;99.90
23813;DHT22;12087;45.190;5.688;2023-06-24T10:21:59;26.20;99.90
23813;DHT22;12087;45.190;5.688;2023-06-24T10:27:23;26.40;97.90
23813;DHT22;12087;45.190;5.688;2023-06-24T10:32:51;26.40;96.10
23813;DHT22;12087;45.190;5.688;2023-06-24T10:38:14;26.50;95.30
23813;DHT22;12087;45.190;5.688;2023-06-24T10:43:39;26.70;96.50
23813;DHT22;12087;45.190;5.688;2023-06-24T10:49:01;27.00;96.00
23813;DHT22;12087;45.190;5.688;2023-06-24T10:54:23;27.30;93.70
23813;DHT22;12087;45.190;5.688;2023-06-24T10:59:48;27.40;93.40
23813;DHT22;12087;45.190;5.688;2023-06-24T11:05:10;27.60;93.20
23813;DHT22;12087;45.190;5.688;2023-06-24T11:10:33;27.80;91.70
23813;DHT22;12087;45.190;5.688;2023-06-24T11:16:00;28.00;91.20
23813;DHT22;12087;45.190;5.688;2023-06-24T11:21:29;28.30;93.20
23813;DHT22;12087;45.190;5.688;2023-06-24T11:26:52;28.70;90.50
23813;DHT22;12087;45.190;5.688;2023-06-24T11:32:16;29.00;90.70
23813;DHT22;12087;45.190;5.688;2023-06-24T11:37:41;29.00;90.50
23813;DHT22;12087;45.190;5.688;2023-06-24T11:43:04;29.00;88.50
23813;DHT22;12087;45.190;5.688;2023-06-24T11:48:29;29.30;88.80
23813;DHT22;12087;45.190;5.688;2023-06-24T11:53:52;29.30;90.00
23813;DHT22;12087;45.190;5.688;2023-06-24T11:59:19;29.30;87.00
23813;DHT22;12087;45.190;5.688;2023-06-24T12:04:43;29.70;89.40
23813;DHT22;12087;45.190;5.688;2023-06-24T12:10:08;30.10;89.00
23813;DHT22;12087;45.190;5.688;2023-06-24T12:15:30;30.10;86.50
23813;DHT22;12087;45.190;5.688;2023-06-24T12:20:54;30.10;84.00
23813;DHT22;12087;45.190;5.688;2023-06-24T12:26:16;30.50;84.90
23813;DHT22;12087;45.190;5.688;2023-06-24T12:31:39;30.80;83.10
23813;DHT22;12087;45.190;5.688;2023-06-24T12:37:03;30.80;83.10
23813;DHT22;12087;45.190;5.688;2023-06-24T12:42:25;30.70;82.30
23813;DHT22;12087;45.190;5.688;2023-06-24T12:47:48;31.00;81.10
23813;DHT22;12087;45.190;5.688;2023-06-24T12:53:12;31.20;83.30
23813;DHT22;12087;45.190;5.688;2023-06-24T12:58:36;31.40;80.40
23813;DHT22;12087;45.190;5.688;2023-06-24T13:03:58;31.40;78.00
23813;DHT22;12087;45.190;5.688;2023-06-24T13:09:22;31.50;79.90
23813;DHT22;12087;45.190;5.688;2023-06-24T13:14:44;31.70;78.60
23813;DHT22;12087;45.190;5.688;2023-06-24T13:20:07;31.70;74.70
23813;DHT22;12087;45.190;5.688;2023-06-24T13:25:31;31.80;77.80
23813;DHT22;12087;45.190;5.688;2023-06-24T13:30:53;31.90;76.60
23813;DHT22;12087;45.190;5.688;2023-06-24T13:36:31;32.10;72.90
23813;DHT22;12087;45.190;5.688;2023-06-24T13:41:57;32.10;70.40
23813;DHT22;12087;45.190;5.688;2023-06-24T13:47:20;32.20;68.70
23813;DHT22;12087;45.190;5.688;2023-06-24T13:52:43;32.10;70.90
23813;DHT22;12087;45.190;5.688;2023-06-24T13:58:07;32.20;68.50
23813;DHT22;12087;45.190;5.688;2023-06-24T14:03:29;32.20;68.40
23813;DHT22;12087;45.190;5.688;2023-06-24T14:08:51;32.20;67.70
23813;DHT22;12087;45.190;5.688;2023-06-24T14:14:15;32.20;66.70
23813;DHT22;12087;45.190;5.688;2023-06-24T14:19:38;32.00;63.60
23813;DHT22;12087;45.190;5.688;2023-06-24T14:25:00;31.90;62.80
23813;DHT22;12087;45.190;5.688;2023-06-24T14:30:23;31.90;61.80
23813;DHT22;12087;45.190;5.688;2023-06-24T14:35:46;31.90;62.80
23813;DHT22;12087;45.190;5.688;2023-06-24T14:41:08;31.80;64.60
23813;DHT22;12087;45.190;5.688;2023-06-24T14:46:31;31.60;63.20
23813;DHT22;12087;45.190;5.688;2023-06-24T14:51:54;31.50;63.30
23813;DHT22;12087;45.190;5.688;2023-06-24T14:57:16;31.30;62.90
23813;DHT22;12087;45.190;5.688;2023-06-24T15:02:39;31.10;61.90
23813;DHT22;12087;45.190;5.688;2023-06-24T15:08:01;30.80;62.50
23813;DHT22;12087;45.190;5.688;2023-06-24T15:13:24;30.50;64.60
23813;DHT22;12087;45.190;5.688;2023-06-24T15:18:48;30.50;62.90
23813;DHT22;12087;45.190;5.688;2023-06-24T15:24:10;30.40;64.50
23813;DHT22;12087;45.190;5.688;2023-06-24T15:29:33;30.30;65.50
23813;DHT22;12087;45.190;5.688;2023-06-24T15:34:56;30.20;65.00
23813;DHT22;12087;45.190;5.688;2023-06-24T15:40:18;30.10;64.00
23813;DHT22;12087;45.190;5.688;2023-06-24T15:45:40;30.00;66.80
23813;DHT22;12087;45.190;5.688;2023-06-24T15:51:04;29.90;65.50
23813;DHT22;12087;45.190;5.688;2023-06-24T15:56:26;29.80;64.50
23813;DHT22;12087;45.190;5.688;2023-06-24T16:01:49;29.70;65.80
23813;DHT22;12087;45.190;5.688;2023-06-24T16:07:12;29.60;64.60
23813;DHT22;12087;45.190;5.688;2023-06-24T16:12:34;29.50;64.90
23813;DHT22;12087;45.190;5.688;2023-06-24T16:17:57;29.50;65.60
23813;DHT22;12087;45.190;5.688;2023-06-24T16:23:20;29.40;66.40
23813;DHT22;12087;45.190;5.688;2023-06-24T16:28:42;29.30;67.50
23813;DHT22;12087;45.190;5.688;2023-06-24T16:34:05;29.20;68.00
23813;DHT22;12087;45.190;5.688;2023-06-24T16:39:29;29.20;67.50
23813;DHT22;12087;45.190;5.688;2023-06-24T16:44:51;29.10;67.20
23813;DHT22;12087;45.190;5.688;2023-06-24T16:50:14;29.10;66.70
23813;DHT22;12087;45.190;5.688;2023-06-24T16:55:39;29.00;69.10
23813;DHT22;12087;45.190;5.688;2023-06-24T17:01:01;28.90;69.50
23813;DHT22;12087;45.190;5.688;2023-06-24T17:06:23;28.80;68.70
23813;DHT22;12087;45.190;5.688;2023-06-24T17:11:47;28.80;69.60
23813;DHT22;12087;45.190;5.688;2023-06-24T17:17:09;28.70;67.80
23813;DHT22;12087;45.190;5.688;2023-06-24T17:22:31;28.70;68.30
23813;DHT22;12087;45.190;5.688;2023-06-24T17:27:55;28.60;69.90
23813;DHT22;12087;45.190;5.688;2023-06-24T17:33:17;28.50;68.50
23813;DHT22;12087;45.190;5.688;2023-06-24T17:38:39;28.40;69.30
23813;DHT22;12087;45.190;5.688;2023-06-24T17:44:03;28.30;70.00
23813;DHT22;12087;45.190;5.688;2023-06-24T17:49:25;28.20;69.00
23813;DHT22;12087;45.190;5.688;2023-06-24T17:54:47;28.10;70.80
23813;DHT22;12087;45.190;5.688;2023-06-24T18:00:12;28.00;70.40
23813;DHT22;12087;45.190;5.688;2023-06-24T18:05:34;27.80;70.50
23813;DHT22;12087;45.190;5.688;2023-06-24T18:10:57;27.80;70.60
23813;DHT22;12087;45.190;5.688;2023-06-24T18:16:20;27.70;70.90
23813;DHT22;12087;45.190;5.688;2023-06-24T18:21:43;27.60;72.10
23813;DHT22;12087;45.190;5.688;2023-06-24T18:27:05;27.50;72.60
23813;DHT22;12087;45.190;5.688;2023-06-24T18:32:29;27.40;75.90
23813;DHT22;12087;45.190;5.688;2023-06-24T18:37:52;27.30;74.70
23813;DHT22;12087;45.190;5.688;2023-06-24T18:43:14;27.10;76.10
23813;DHT22;12087;45.190;5.688;2023-06-24T18:48:38;27.00;77.40
23813;DHT22;12087;45.190;5.688;2023-06-24T18:54:01;26.90;79.50
23813;DHT22;12087;45.190;5.688;2023-06-24T18:59:23;26.90;76.80
23813;DHT22;12087;45.190;5.688;2023-06-24T19:04:47;26.70;78.00
23813;DHT22;12087;45.190;5.688;2023-06-24T19:10:09;26.60;78.90
23813;DHT22;12087;45.190;5.688;2023-06-24T19:15:31;26.50;78.50
23813;DHT22;12087;45.190;5.688;2023-06-24T19:20:55;26.50;78.70
23813;DHT22;12087;45.190;5.688;2023-06-24T19:26:17;26.50;81.10
23813;DHT22;12087;45.190;5.688;2023-06-24T19:31:39;26.30;79.50
23813;DHT22;12087;45.190;5.688;2023-06-24T19:37:03;26.20;79.10
23813;DHT22;12087;45.190;5.688;2023-06-24T19:42:26;26.10;80.40
23813;DHT22;12087;45.190;5.688;2023-06-24T19:47:48;26.00;80.70
23813;DHT22;12087;45.190;5.688;2023-06-24T19:53:12;25.90;80.80
23813;DHT22;12087;45.190;5.688;2023-06-24T19:58:35;25.80;81.70
23813;DHT22;12087;45.190;5.688;2023-06-24T20:03:57;25.70;81.30
23813;DHT22;12087;45.190;5.688;2023-06-24T20:09:21;25.60;82.10
23813;DHT22;12087;45.190;5.688;2023-06-24T20:14:44;25.50;82.10
23813;DHT22;12087;45.190;5.688;2023-06-24T20:20:07;25.40;82.90
23813;DHT22;12087;45.190;5.688;2023-06-24T20:25:31;25.30;83.30
23813;DHT22;12087;45.190;5.688;2023-06-24T20:30:53;25.20;84.00
23813;DHT22;12087;45.190;5.688;2023-06-24T20:36:23;25.20;84.80
23813;DHT22;12087;45.190;5.688;2023-06-24T20:41:46;25.10;85.90
23813;DHT22;12087;45.190;5.688;2023-06-24T20:47:10;24.90;85.50
23813;DHT22;12087;45.190;5.688;2023-06-24T20:52:32;24.90;88.70
23813;DHT22;12087;45.190;5.688;2023-06-24T20:57:57;24.80;87.40
23813;DHT22;12087;45.190;5.688;2023-06-24T21:03:21;24.70;89.70
23813;DHT22;12087;45.190;5.688;2023-06-24T21:08:43;24.60;89.50
23813;DHT22;12087;45.190;5.688;2023-06-24T21:14:07;24.50;90.20
23813;DHT22;12087;45.190;5.688;2023-06-24T21:19:29;24.40;90.30
23813;DHT22;12087;45.190;5.688;2023-06-24T21:24:51;24.20;90.70
23813;DHT22;12087;45.190;5.688;2023-06-24T21:30:15;24.10;91.60
23813;DHT22;12087;45.190;5.688;2023-06-24T21:35:37;24.00;91.40
23813;DHT22;12087;45.190;5.688;2023-06-24T21:41:00;23.90;92.00
23813;DHT22;12087;45.190;5.688;2023-06-24T21:46:24;23.70;92.70
23813;DHT22;12087;45.190;5.688;2023-06-24T21:51:46;23.70;92.50
23813;DHT22;12087;45.190;5.688;2023-06-24T21:57:08;23.50;93.00
23813;DHT22;12087;45.190;5.688;2023-06-24T22:02:32;23.40;93.20
23813;DHT22;12087;45.190;5.688;2023-06-24T22:07:54;23.40;93.30
23813;DHT22;12087;45.190;5.688;2023-06-24T22:13:16;23.30;95.10
23813;DHT22;12087;45.190;5.688;2023-06-24T22:18:40;23.20;95.10
23813;DHT22;12087;45.190;5.688;2023-06-24T22:24:02;23.00;94.80
23813;DHT22;12087;45.190;5.688;2023-06-24T22:29:25;23.00;94.60
23813;DHT22;12087;45.190;5.688;2023-06-24T22:34:48;23.00;95.60
23813;DHT22;12087;45.190;5.688;2023-06-24T22:40:11;22.90;96.10
23813;DHT22;12087;45.190;5.688;2023-06-24T22:45:33;22.80;96.70
23813;DHT22;12087;45.190;5.688;2023-06-24T22:50:57;22.70;97.30
23813;DHT22;12087;45.190;5.688;2023-06-24T22:56:20;22.60;97.10
23813;DHT22;12087;45.190;5.688;2023-06-24T23:01:43;22.50;97.40
23813;DHT22;12087;45.190;5.688;2023-06-24T23:07:07;22.40;97.90
23813;DHT22;12087;45.190;5.688;2023-06-24T23:12:30;22.30;98.30
23813;DHT22;12087;45.190;5.688;2023-06-24T23:17:53;22.20;98.70
23813;DHT22;12087;45.190;5.688;2023-06-24T23:23:17;22.10;99.00
23813;DHT22;12087;45.190;5.688;2023-06-24T23:28:41;22.10;99.90
23813;DHT22;12087;45.190;5.688;2023-06-24T23:34:06;22.00;99.60
23813;DHT22;12087;45.190;5.688;2023-06-24T23:39:30;22.00;99.80
23813;DHT22;12087;45.190;5.688;2023-06-24T23:44:53;22.00;99.90
23813;DHT22;12087;45.190;5.688;2023-06-24T23:50:16;21.90;99.90
23813;DHT22;12087;45.190;5.688;2023-06-24T23:55:39;21.90;99.90
